createdAt,value
2019-03-25T00:05:54.770Z,56
2019-03-25T00:15:58.287Z,55
2019-03-25T00:26:01.813Z,55
2019-03-25T00:36:05.326Z,55
2019-03-25T00:46:08.853Z,55
2019-03-25T00:56:12.366Z,55
2019-03-25T01:06:15.862Z,56
2019-03-25T01:16:19.391Z,55
2019-03-25T01:26:22.887Z,55
2019-03-25T01:36:26.418Z,55
2019-03-25T01:46:29.936Z,56
2019-03-25T01:56:33.451Z,55
2019-03-25T02:06:36.969Z,55
2019-03-25T02:16:40.512Z,55
2019-03-25T02:26:43.991Z,55
2019-03-25T02:36:47.518Z,55
2019-03-25T02:46:51.143Z,55
2019-03-25T02:56:54.688Z,55
2019-03-25T03:06:58.202Z,54
2019-03-25T03:17:01.705Z,54
2019-03-25T03:27:05.227Z,54
2019-03-25T03:37:08.741Z,54
2019-03-25T03:47:12.269Z,54
2019-03-25T03:57:15.802Z,54
2019-03-25T04:07:19.323Z,54
2019-03-25T04:17:22.859Z,54
2019-03-25T04:27:26.410Z,54
2019-03-25T04:37:29.956Z,54
2019-03-25T04:47:33.467Z,54
2019-03-25T04:57:36.966Z,54
2019-03-25T05:07:40.468Z,54
2019-03-25T05:17:43.984Z,54
2019-03-25T05:27:47.541Z,54
2019-03-25T05:37:51.106Z,54
2019-03-25T05:47:54.702Z,55
2019-03-25T05:57:58.257Z,55
2019-03-25T06:08:01.854Z,55
2019-03-25T06:18:05.402Z,55
2019-03-25T06:28:08.923Z,56
2019-03-25T06:38:13.448Z,56
2019-03-25T06:48:16.958Z,42
2019-03-25T06:58:20.460Z,53
2019-03-25T07:08:23.976Z,55
2019-03-25T07:18:27.489Z,55
2019-03-25T07:28:31.019Z,55
2019-03-25T07:38:34.514Z,55
2019-03-25T07:48:38.027Z,55
2019-03-25T07:58:41.566Z,62
2019-03-25T08:08:45.101Z,62
2019-03-25T08:18:48.601Z,61
2019-03-25T08:28:52.129Z,59
2019-03-25T08:38:55.654Z,60
2019-03-25T08:48:59.169Z,62
2019-03-25T08:59:02.686Z,63
2019-03-25T09:09:06.164Z,65
2019-03-25T09:19:09.711Z,67
2019-03-25T09:29:13.222Z,66
2019-03-25T09:39:16.772Z,67
2019-03-25T09:49:20.344Z,69
2019-03-25T09:59:23.848Z,69
2019-03-25T10:09:27.374Z,69
2019-03-25T10:19:30.915Z,70
2019-03-25T10:29:34.468Z,71
2019-03-25T10:39:38.011Z,71
2019-03-25T10:49:41.577Z,70
2019-03-25T10:59:45.180Z,73
2019-03-25T11:09:48.709Z,58
2019-03-25T11:19:52.244Z,64
2019-03-25T11:29:55.782Z,69
2019-03-25T11:39:59.346Z,74
2019-03-25T11:50:02.952Z,77
2019-03-25T12:00:06.521Z,77
2019-03-25T12:10:10.060Z,85
2019-03-25T12:20:13.613Z,88
2019-03-25T12:30:17.223Z,59
2019-03-25T12:40:20.803Z,60
2019-03-25T12:50:24.382Z,93
2019-03-25T13:00:27.942Z,82
2019-03-25T13:10:31.471Z,81
2019-03-25T13:20:35.036Z,79
2019-03-25T13:30:38.609Z,76
2019-03-25T13:40:42.165Z,74
2019-03-25T13:50:45.731Z,75
2019-03-25T14:00:49.347Z,68
2019-03-25T14:10:52.922Z,62
2019-03-25T14:20:56.486Z,64
2019-03-25T14:31:00.047Z,64
2019-03-25T14:41:03.596Z,65
2019-03-25T14:51:07.155Z,64
2019-03-25T15:01:10.700Z,61
2019-03-25T15:11:14.212Z,61
2019-03-25T15:21:17.764Z,58
2019-03-25T15:31:21.336Z,59
2019-03-25T15:41:24.931Z,58
2019-03-25T15:51:28.499Z,63
2019-03-25T16:01:32.097Z,61
2019-03-25T16:11:35.663Z,64
2019-03-25T16:21:39.184Z,69
2019-03-25T16:31:42.681Z,71
2019-03-25T16:41:46.165Z,72
2019-03-25T16:51:49.685Z,73
2019-03-25T17:01:53.195Z,73
2019-03-25T17:11:56.693Z,72
2019-03-25T17:22:00.191Z,63
2019-03-25T17:32:03.715Z,65
2019-03-25T17:42:07.210Z,66
2019-03-25T17:52:10.688Z,65
2019-03-25T18:02:14.205Z,66
2019-03-25T18:12:17.706Z,60
2019-03-25T18:22:21.207Z,59
2019-03-25T18:32:24.714Z,59
2019-03-25T18:42:28.233Z,61
2019-03-25T18:52:31.751Z,61
2019-03-25T19:02:35.265Z,62
2019-03-25T19:12:38.846Z,62
2019-03-25T19:22:42.381Z,61
2019-03-25T19:32:45.917Z,61
2019-03-25T19:42:49.480Z,61
2019-03-25T19:52:53.109Z,60
2019-03-25T20:02:56.722Z,59
2019-03-25T20:13:00.344Z,60
2019-03-25T20:23:04.137Z,60
2019-03-25T20:33:07.853Z,56
2019-03-25T20:43:11.415Z,53
2019-03-25T20:53:14.932Z,51
2019-03-25T21:03:18.453Z,48
2019-03-25T21:13:22.224Z,47
2019-03-25T21:23:25.960Z,46
2019-03-25T21:33:29.684Z,45
2019-03-25T21:43:33.323Z,43
2019-03-25T21:53:37.230Z,43
2019-03-25T22:03:40.847Z,43
2019-03-25T22:13:44.340Z,42
2019-03-25T22:23:47.839Z,41
2019-03-25T22:33:51.362Z,42
2019-03-25T22:43:54.879Z,41
2019-03-25T22:53:58.410Z,40
2019-03-25T23:04:01.935Z,40
2019-03-25T23:14:05.432Z,40
2019-03-25T23:24:39.183Z,40
2019-03-25T23:34:42.708Z,39
2019-03-25T23:44:46.223Z,40
2019-03-25T23:54:49.733Z,39
